31.3°F
Current conditions from King Hill
Updated every 5 minutes
 
  Friday October 31, 2014

Station Historical Data
Daily Summary for November 5, 2011 Units:  Both    English   Metric
« Previous Day
Next Day »
Daily Weekly Monthly Yearly Custom
  High: Low: Average:
Temperature: 46.0 °F /  7.8 °C 23.9 °F /  -4.5 °C 33 °F /  0.6 °C
Dew Point: 30.8 °F /  -0.7 °C 20.6 °F /  -6.3 °C 25.3 °F /  -3.7 °C
Humidity: 91% 47% 75%
Wind Speed: 4.0mph /  6.4km/h - 1.7mph /  2.7km/h
Wind Gust: 8.0mph /  12.9km/h - -
Wind- - SSW
Pressure: 30.48 in /  1032.1 hPa 30.32 in /  1026.6 hPa -
Precipitation: 0.05 in /  1.3 mm    
Historical Graphs
 
 
Tabular Data for November 5, 2011
Time Temperature Dew Point Pressure Wind Wind Speed Wind Gust Humidity Daily Rainfall
00:00 29.9 °F /  -1.2 °C 24.8 °F /  -4 °C 30.32in /  1026.6hPa Calm     81% 0.04in /  1mm
00:05 30.1 °F /  -1.1 °C 25.0 °F /  -3.9 °C 30.32in /  1026.6hPa Calm     81% 0.00in /  0mm
00:10 30.2 °F /  -1 °C 25.4 °F /  -3.7 °C 30.32in /  1026.6hPa Calm   1.0mph /  1.6km/h 82% 0.00in /  0mm
00:15 30.5 °F /  -0.8 °C 25.4 °F /  -3.7 °C 30.32in /  1026.6hPa Calm   1.0mph /  1.6km/h 81% 0.00in /  0mm
00:20 30.8 °F /  -0.7 °C 25.7 °F /  -3.5 °C 30.32in /  1026.6hPa Calm   1.0mph /  1.6km/h 81% 0.00in /  0mm
00:30 31.0 °F /  -0.6 °C 25.9 °F /  -3.4 °C 30.33in /  1027hPa Calm   1.0mph /  1.6km/h 81% 0.00in /  0mm
00:35 31.1 °F /  -0.5 °C 26.0 °F /  -3.3 °C 30.32in /  1026.6hPa Calm   1.0mph /  1.6km/h 81% 0.00in /  0mm
00:40 31.0 °F /  -0.6 °C 25.9 °F /  -3.4 °C 30.33in /  1027hPa Calm   1.0mph /  1.6km/h 81% 0.00in /  0mm
00:45 31.0 °F /  -0.6 °C 25.9 °F /  -3.4 °C 30.32in /  1026.6hPa Calm   1.0mph /  1.6km/h 81% 0.00in /  0mm
00:50 31.0 °F /  -0.6 °C 25.9 °F /  -3.4 °C 30.32in /  1026.6hPa Calm   1.0mph /  1.6km/h 81% 0.00in /  0mm
00:55 30.8 °F /  -0.7 °C 25.4 °F /  -3.7 °C 30.32in /  1026.6hPa Calm   1.0mph /  1.6km/h 80% 0.00in /  0mm
01:00 30.6 °F /  -0.8 °C 25.2 °F /  -3.8 °C 30.32in /  1026.6hPa Calm     80% 0.00in /  0mm
01:05 30.4 °F /  -0.9 °C 25.0 °F /  -3.9 °C 30.32in /  1026.6hPa Calm     80% 0.00in /  0mm
01:10 30.2 °F /  -1 °C 25.1 °F /  -3.8 °C 30.32in /  1026.6hPa Calm   1.0mph /  1.6km/h 81% 0.00in /  0mm
01:15 30.1 °F /  -1.1 °C 25.0 °F /  -3.9 °C 30.32in /  1026.6hPa Calm   1.0mph /  1.6km/h 81% 0.00in /  0mm
01:20 30.0 °F /  -1.1 °C 24.9 °F /  -3.9 °C 30.32in /  1026.6hPa Calm   1.0mph /  1.6km/h 81% 0.00in /  0mm
01:25 29.9 °F /  -1.2 °C 24.8 °F /  -4 °C 30.33in /  1027hPa Calm   1.0mph /  1.6km/h 81% 0.00in /  0mm
01:30 29.9 °F /  -1.2 °C 24.8 °F /  -4 °C 30.33in /  1027hPa Calm     81% 0.00in /  0mm
01:35 29.7 °F /  -1.3 °C 24.6 °F /  -4.1 °C 30.32in /  1026.6hPa Calm     81% 0.00in /  0mm
01:40 29.6 °F /  -1.3 °C 24.8 °F /  -4 °C 30.33in /  1027hPa Calm     82% 0.00in /  0mm
01:45 29.5 °F /  -1.4 °C 24.7 °F /  -4.1 °C 30.33in /  1027hPa Calm     82% 0.00in /  0mm
01:55 29.1 °F /  -1.6 °C 24.3 °F /  -4.3 °C 30.33in /  1027hPa Calm   1.0mph /  1.6km/h 82% 0.00in /  0mm
02:00 28.9 °F /  -1.7 °C 24.4 °F /  -4.2 °C 30.33in /  1027hPa Calm     83% 0.00in /  0mm
02:05 28.6 °F /  -1.9 °C 24.1 °F /  -4.4 °C 30.33in /  1027hPa Calm     83% 0.00in /  0mm
02:10 28.3 °F /  -2.1 °C 23.8 °F /  -4.6 °C 30.33in /  1027hPa Calm     83% 0.00in /  0mm
02:15 28.1 °F /  -2.2 °C 23.9 °F /  -4.5 °C 30.33in /  1027hPa Calm     84% 0.00in /  0mm
02:20 27.8 °F /  -2.3 °C 23.6 °F /  -4.7 °C 30.33in /  1027hPa Calm     84% 0.00in /  0mm
02:25 27.9 °F /  -2.3 °C 24.0 °F /  -4.4 °C 30.34in /  1027.3hPa Calm     85% 0.00in /  0mm
02:30 27.8 °F /  -2.3 °C 23.9 °F /  -4.5 °C 30.34in /  1027.3hPa Calm     85% 0.00in /  0mm
02:35 27.6 °F /  -2.4 °C 23.7 °F /  -4.6 °C 30.34in /  1027.3hPa Calm     85% 0.00in /  0mm
02:40 27.4 °F /  -2.6 °C 23.5 °F /  -4.7 °C 30.34in /  1027.3hPa Calm     85% 0.00in /  0mm
02:45 27.2 °F /  -2.7 °C 23.3 °F /  -4.8 °C 30.34in /  1027.3hPa Calm     85% 0.00in /  0mm
02:50 27.2 °F /  -2.7 °C 23.6 °F /  -4.7 °C 30.34in /  1027.3hPa Calm     86% 0.00in /  0mm
02:55 27.2 °F /  -2.7 °C 23.6 °F /  -4.7 °C 30.34in /  1027.3hPa Calm     86% 0.00in /  0mm
03:00 27.0 °F /  -2.8 °C 23.4 °F /  -4.8 °C 30.35in /  1027.7hPa Calm     86% 0.00in /  0mm
03:05 27.0 °F /  -2.8 °C 23.4 °F /  -4.8 °C 30.35in /  1027.7hPa Calm     86% 0.00in /  0mm
03:10 27.2 °F /  -2.7 °C 23.6 °F /  -4.7 °C 30.35in /  1027.7hPa Calm     86% 0.00in /  0mm
03:15 27.3 °F /  -2.6 °C 23.7 °F /  -4.6 °C 30.35in /  1027.7hPa Calm     86% 0.00in /  0mm
03:20 27.2 °F /  -2.7 °C 23.6 °F /  -4.7 °C 30.35in /  1027.7hPa Calm     86% 0.00in /  0mm
03:25 27.2 °F /  -2.7 °C 23.6 °F /  -4.7 °C 30.35in /  1027.7hPa Calm     86% 0.00in /  0mm
03:30 27.2 °F /  -2.7 °C 23.6 °F /  -4.7 °C 30.36in /  1028hPa Calm     86% 0.00in /  0mm
03:40 27.3 °F /  -2.6 °C 23.7 °F /  -4.6 °C 30.36in /  1028hPa Calm     86% 0.00in /  0mm
03:45 27.4 °F /  -2.6 °C 23.8 °F /  -4.6 °C 30.36in /  1028hPa Calm     86% 0.00in /  0mm
03:50 27.4 °F /  -2.6 °C 23.8 °F /  -4.6 °C 30.36in /  1028hPa Calm     86% 0.00in /  0mm
03:55 27.5 °F /  -2.5 °C 23.9 °F /  -4.5 °C 30.37in /  1028.3hPa Calm     86% 0.00in /  0mm
04:00 27.6 °F /  -2.4 °C 23.7 °F /  -4.6 °C 30.37in /  1028.3hPa Calm   3.0mph /  4.8km/h 85% 0.00in /  0mm
04:05 27.9 °F /  -2.3 °C 24.0 °F /  -4.4 °C 30.37in /  1028.3hPa Calm   4.0mph /  6.4km/h 85% 0.00in /  0mm
04:10 28.1 °F /  -2.2 °C 24.2 °F /  -4.3 °C 30.37in /  1028.3hPa Calm   4.0mph /  6.4km/h 85% 0.00in /  0mm
04:15 28.2 °F /  -2.1 °C 24.0 °F /  -4.4 °C 30.37in /  1028.3hPa Calm   2.0mph /  3.2km/h 84% 0.00in /  0mm
04:20 28.1 °F /  -2.2 °C 23.9 °F /  -4.5 °C 30.37in /  1028.3hPa Calm   1.0mph /  1.6km/h 84% 0.00in /  0mm
04:25 28.3 °F /  -2.1 °C 24.1 °F /  -4.4 °C 30.37in /  1028.3hPa Calm   2.0mph /  3.2km/h 84% 0.00in /  0mm
04:35 28.4 °F /  -2 °C 24.2 °F /  -4.3 °C 30.37in /  1028.3hPa Calm   5.0mph /  8km/h 84% 0.00in /  0mm
04:40 28.3 °F /  -2.1 °C 24.1 °F /  -4.4 °C 30.38in /  1028.7hPa Calm   3.0mph /  4.8km/h 84% 0.00in /  0mm
04:45 28.2 °F /  -2.1 °C 24.0 °F /  -4.4 °C 30.38in /  1028.7hPa Calm   3.0mph /  4.8km/h 84% 0.00in /  0mm
04:50 28.2 °F /  -2.1 °C 24.0 °F /  -4.4 °C 30.38in /  1028.7hPa Calm   1.0mph /  1.6km/h 84% 0.00in /  0mm
04:55 28.2 °F /  -2.1 °C 24.0 °F /  -4.4 °C 30.38in /  1028.7hPa Calm   1.0mph /  1.6km/h 84% 0.00in /  0mm
05:00 28.1 °F /  -2.2 °C 23.9 °F /  -4.5 °C 30.38in /  1028.7hPa Calm     84% 0.00in /  0mm
05:05 28.1 °F /  -2.2 °C 23.9 °F /  -4.5 °C 30.38in /  1028.7hPa Calm     84% 0.00in /  0mm
05:10 28.1 °F /  -2.2 °C 23.9 °F /  -4.5 °C 30.38in /  1028.7hPa Calm     84% 0.00in /  0mm
05:15 27.9 °F /  -2.3 °C 23.7 °F /  -4.6 °C 30.38in /  1028.7hPa Calm     84% 0.00in /  0mm
05:20 27.9 °F /  -2.3 °C 23.7 °F /  -4.6 °C 30.39in /  1029hPa Calm     84% 0.00in /  0mm
05:25 27.8 °F /  -2.3 °C 23.6 °F /  -4.7 °C 30.39in /  1029hPa Calm     84% 0.00in /  0mm
05:30 27.8 °F /  -2.3 °C 23.6 °F /  -4.7 °C 30.39in /  1029hPa Calm     84% 0.00in /  0mm
05:40 27.0 °F /  -2.8 °C 22.5 °F /  -5.3 °C 30.40in /  1029.3hPa Calm     83% 0.00in /  0mm
05:45 26.3 °F /  -3.2 °C 21.8 °F /  -5.7 °C 30.40in /  1029.3hPa Calm     83% 0.00in /  0mm
05:50 26.1 °F /  -3.3 °C 21.9 °F /  -5.6 °C 30.40in /  1029.3hPa Calm     84% 0.00in /  0mm
05:55 25.9 °F /  -3.4 °C 21.7 °F /  -5.7 °C 30.40in /  1029.3hPa Calm     84% 0.00in /  0mm
06:05 25.6 °F /  -3.6 °C 21.7 °F /  -5.7 °C 30.40in /  1029.3hPa Calm     85% 0.00in /  0mm
06:10 25.5 °F /  -3.6 °C 21.6 °F /  -5.8 °C 30.40in /  1029.3hPa Calm     85% 0.00in /  0mm
06:15 25.4 °F /  -3.7 °C 21.8 °F /  -5.7 °C 30.41in /  1029.7hPa Calm     86% 0.00in /  0mm
06:20 25.3 °F /  -3.7 °C 21.7 °F /  -5.7 °C 30.41in /  1029.7hPa Calm     86% 0.00in /  0mm
06:25 25.2 °F /  -3.8 °C 21.6 °F /  -5.8 °C 30.41in /  1029.7hPa Calm     86% 0.00in /  0mm
06:30 24.9 °F /  -3.9 °C 21.3 °F /  -5.9 °C 30.41in /  1029.7hPa Calm     86% 0.00in /  0mm
06:40 24.4 °F /  -4.2 °C 20.8 °F /  -6.2 °C 30.41in /  1029.7hPa Calm     86% 0.00in /  0mm
06:45 24.5 °F /  -4.2 °C 21.2 °F /  -6 °C 30.41in /  1029.7hPa Calm     87% 0.00in /  0mm
06:50 25.2 °F /  -3.8 °C 22.1 °F /  -5.5 °C 30.42in /  1030hPa Calm     88% 0.00in /  0mm
06:55 25.8 °F /  -3.4 °C 22.7 °F /  -5.2 °C 30.41in /  1029.7hPa Calm   1.0mph /  1.6km/h 88% 0.00in /  0mm
07:00 26.1 °F /  -3.3 °C 23.0 °F /  -5 °C 30.41in /  1029.7hPa Calm   1.0mph /  1.6km/h 88% 0.00in /  0mm
07:05 26.2 °F /  -3.2 °C 23.1 °F /  -4.9 °C 30.42in /  1030hPa Calm     88% 0.00in /  0mm
07:10 26.1 °F /  -3.3 °C 22.8 °F /  -5.1 °C 30.42in /  1030hPa Calm     87% 0.00in /  0mm
07:15 25.8 °F /  -3.4 °C 22.5 °F /  -5.3 °C 30.42in /  1030hPa Calm   1.0mph /  1.6km/h 87% 0.00in /  0mm
07:20 25.9 °F /  -3.4 °C 22.8 °F /  -5.1 °C 30.42in /  1030hPa Calm   1.0mph /  1.6km/h 88% 0.00in /  0mm
07:25 26.0 °F /  -3.3 °C 22.9 °F /  -5.1 °C 30.42in /  1030hPa Calm   1.0mph /  1.6km/h 88% 0.00in /  0mm
07:30 26.1 °F /  -3.3 °C 23.0 °F /  -5 °C 30.42in /  1030hPa Calm   2.0mph /  3.2km/h 88% 0.00in /  0mm
07:35 26.2 °F /  -3.2 °C 23.1 °F /  -4.9 °C 30.42in /  1030hPa Calm   2.0mph /  3.2km/h 88% 0.00in /  0mm
07:40 25.9 °F /  -3.4 °C 22.6 °F /  -5.2 °C 30.43in /  1030.4hPa Calm     87% 0.00in /  0mm
07:45 25.4 °F /  -3.7 °C 22.1 °F /  -5.5 °C 30.43in /  1030.4hPa Calm     87% 0.00in /  0mm
07:50 25.0 °F /  -3.9 °C 21.7 °F /  -5.7 °C 30.43in /  1030.4hPa Calm     87% 0.00in /  0mm
07:55 24.5 °F /  -4.2 °C 21.2 °F /  -6 °C 30.43in /  1030.4hPa Calm     87% 0.00in /  0mm
08:00 24.3 °F /  -4.3 °C 21.0 °F /  -6.1 °C 30.43in /  1030.4hPa Calm     87% 0.00in /  0mm
08:05 24.1 °F /  -4.4 °C 20.8 °F /  -6.2 °C 30.44in /  1030.7hPa Calm     87% 0.00in /  0mm
08:10 24.0 °F /  -4.4 °C 20.7 °F /  -6.3 °C 30.44in /  1030.7hPa Calm     87% 0.00in /  0mm
08:15 23.9 °F /  -4.5 °C 20.6 °F /  -6.3 °C 30.44in /  1030.7hPa Calm     87% 0.00in /  0mm
08:20 24.0 °F /  -4.4 °C 21.0 °F /  -6.1 °C 30.45in /  1031hPa Calm     88% 0.00in /  0mm
08:25 24.3 °F /  -4.3 °C 21.3 °F /  -5.9 °C 30.45in /  1031hPa Calm     88% 0.00in /  0mm
08:30 24.6 °F /  -4.1 °C 21.6 °F /  -5.8 °C 30.45in /  1031hPa Calm     88% 0.00in /  0mm
08:35 24.7 °F /  -4.1 °C 21.7 °F /  -5.7 °C 30.45in /  1031hPa Calm     88% 0.00in /  0mm
08:40 24.9 °F /  -3.9 °C 21.9 °F /  -5.6 °C 30.45in /  1031hPa Calm     88% 0.00in /  0mm
08:45 25.0 °F /  -3.9 °C 22.2 °F /  -5.4 °C 30.45in /  1031hPa Calm     89% 0.00in /  0mm
08:50 25.2 °F /  -3.8 °C 22.4 °F /  -5.3 °C 30.45in /  1031hPa Calm     89% 0.00in /  0mm
08:55 25.5 °F /  -3.6 °C 22.7 °F /  -5.2 °C 30.45in /  1031hPa Calm     89% 0.00in /  0mm
09:00 25.8 °F /  -3.4 °C 23.0 °F /  -5 °C 30.46in /  1031.4hPa Calm     89% 0.00in /  0mm
09:05 26.2 °F /  -3.2 °C 23.7 °F /  -4.6 °C 30.45in /  1031hPa Calm     90% 0.00in /  0mm
09:10 26.4 °F /  -3.1 °C 23.9 °F /  -4.5 °C 30.45in /  1031hPa Calm   1.0mph /  1.6km/h 90% 0.00in /  0mm
09:15 27.0 °F /  -2.8 °C 24.5 °F /  -4.2 °C 30.45in /  1031hPa NNE 1.0mph /  1.6km/h 3.0mph /  4.8km/h 90% 0.00in /  0mm
09:20 27.6 °F /  -2.4 °C 25.3 °F /  -3.7 °C 30.46in /  1031.4hPa Calm   3.0mph /  4.8km/h 91% 0.00in /  0mm
09:25 27.8 °F /  -2.3 °C 25.3 °F /  -3.7 °C 30.46in /  1031.4hPa Calm   2.0mph /  3.2km/h 90% 0.00in /  0mm
09:30 28.2 °F /  -2.1 °C 25.6 °F /  -3.6 °C 30.46in /  1031.4hPa Calm   2.0mph /  3.2km/h 90% 0.00in /  0mm
09:35 29.0 °F /  -1.7 °C 26.7 °F /  -2.9 °C 30.46in /  1031.4hPa Calm   2.0mph /  3.2km/h 91% 0.00in /  0mm
09:40 30.1 °F /  -1.1 °C 27.8 °F /  -2.3 °C 30.46in /  1031.4hPa Calm   3.0mph /  4.8km/h 91% 0.00in /  0mm
09:45 31.4 °F /  -0.3 °C 29.1 °F /  -1.6 °C 30.46in /  1031.4hPa Calm   3.0mph /  4.8km/h 91% 0.00in /  0mm
09:50 32.6 °F /  0.3 °C 30.0 °F /  -1.1 °C 30.46in /  1031.4hPa Calm   1.0mph /  1.6km/h 90% 0.00in /  0mm
09:55 33.9 °F /  1.1 °C 30.4 °F /  -0.9 °C 30.46in /  1031.4hPa Calm   1.0mph /  1.6km/h 87% 0.00in /  0mm
10:00 34.9 °F /  1.6 °C 30.6 °F /  -0.8 °C 30.46in /  1031.4hPa Calm   1.0mph /  1.6km/h 84% 0.00in /  0mm
10:05 35.8 °F /  2.1 °C 30.8 °F /  -0.7 °C 30.47in /  1031.7hPa Calm   1.0mph /  1.6km/h 82% 0.00in /  0mm
10:10 36.5 °F /  2.5 °C 30.6 °F /  -0.8 °C 30.46in /  1031.4hPa Calm   1.0mph /  1.6km/h 79% 0.01in /  0.3mm
10:15 37.1 °F /  2.8 °C 30.6 °F /  -0.8 °C 30.46in /  1031.4hPa Calm   2.0mph /  3.2km/h 77% 0.01in /  0.3mm
10:20 37.5 °F /  3.1 °C 30.0 °F /  -1.1 °C 30.46in /  1031.4hPa Calm   2.0mph /  3.2km/h 74% 0.01in /  0.3mm
10:25 37.6 °F /  3.1 °C 29.7 °F /  -1.3 °C 30.46in /  1031.4hPa NNE 1.0mph /  1.6km/h 2.0mph /  3.2km/h 73% 0.01in /  0.3mm
10:30 37.6 °F /  3.1 °C 29.4 °F /  -1.4 °C 30.47in /  1031.7hPa Calm   3.0mph /  4.8km/h 72% 0.01in /  0.3mm
10:40 37.9 °F /  3.3 °C 29.7 °F /  -1.3 °C 30.47in /  1031.7hPa Calm   1.0mph /  1.6km/h 72% 0.01in /  0.3mm
10:45 38.1 °F /  3.4 °C 29.5 °F /  -1.4 °C 30.47in /  1031.7hPa Calm   4.0mph /  6.4km/h 71% 0.01in /  0.3mm
10:50 38.4 °F /  3.6 °C 29.8 °F /  -1.2 °C 30.47in /  1031.7hPa NNE 1.0mph /  1.6km/h 4.0mph /  6.4km/h 71% 0.01in /  0.3mm
10:55 38.7 °F /  3.7 °C 29.4 °F /  -1.4 °C 30.47in /  1031.7hPa Calm   4.0mph /  6.4km/h 69% 0.02in /  0.5mm
11:00 38.8 °F /  3.8 °C 29.1 °F /  -1.6 °C 30.47in /  1031.7hPa NNE 2.0mph /  3.2km/h 4.0mph /  6.4km/h 68% 0.02in /  0.5mm
11:05 38.9 °F /  3.8 °C 29.2 °F /  -1.6 °C 30.47in /  1031.7hPa Calm   4.0mph /  6.4km/h 68% 0.02in /  0.5mm
11:10 38.8 °F /  3.8 °C 29.1 °F /  -1.6 °C 30.47in /  1031.7hPa NNE 1.0mph /  1.6km/h 4.0mph /  6.4km/h 68% 0.02in /  0.5mm
11:15 38.9 °F /  3.8 °C 29.6 °F /  -1.3 °C 30.47in /  1031.7hPa NNE 1.0mph /  1.6km/h 4.0mph /  6.4km/h 69% 0.02in /  0.5mm
11:20 38.9 °F /  3.8 °C 28.9 °F /  -1.7 °C 30.48in /  1032.1hPa NNW 1.0mph /  1.6km/h 4.0mph /  6.4km/h 67% 0.02in /  0.5mm
11:25 38.6 °F /  3.7 °C 28.6 °F /  -1.9 °C 30.48in /  1032.1hPa NW 1.0mph /  1.6km/h 5.0mph /  8km/h 67% 0.02in /  0.5mm
11:35 38.9 °F /  3.8 °C 29.6 °F /  -1.3 °C 30.48in /  1032.1hPa Calm   4.0mph /  6.4km/h 69% 0.03in /  0.8mm
11:40 39.3 °F /  4.1 °C 28.9 °F /  -1.7 °C 30.48in /  1032.1hPa Calm   2.0mph /  3.2km/h 66% 0.03in /  0.8mm
11:45 39.6 °F /  4.2 °C 28.4 °F /  -2 °C 30.48in /  1032.1hPa SE 3.0mph /  4.8km/h 6.0mph /  9.7km/h 64% 0.03in /  0.8mm
11:50 39.4 °F /  4.1 °C 27.5 °F /  -2.5 °C 30.47in /  1031.7hPa ESE 2.0mph /  3.2km/h 6.0mph /  9.7km/h 62% 0.03in /  0.8mm
11:55 39.3 °F /  4.1 °C 27.8 °F /  -2.3 °C 30.47in /  1031.7hPa ESE 2.0mph /  3.2km/h 5.0mph /  8km/h 63% 0.03in /  0.8mm
12:00 39.6 °F /  4.2 °C 28.4 °F /  -2 °C 30.47in /  1031.7hPa ESE 1.0mph /  1.6km/h 5.0mph /  8km/h 64% 0.03in /  0.8mm
12:05 39.9 °F /  4.4 °C 29.1 °F /  -1.6 °C 30.47in /  1031.7hPa Calm   4.0mph /  6.4km/h 65% 0.03in /  0.8mm
12:10 40.1 °F /  4.5 °C 28.9 °F /  -1.7 °C 30.47in /  1031.7hPa ESE 1.0mph /  1.6km/h 2.0mph /  3.2km/h 64% 0.03in /  0.8mm
12:15 40.3 °F /  4.6 °C 28.7 °F /  -1.8 °C 30.46in /  1031.4hPa NNE 2.0mph /  3.2km/h 5.0mph /  8km/h 63% 0.03in /  0.8mm
12:20 40.5 °F /  4.7 °C 29.3 °F /  -1.5 °C 30.46in /  1031.4hPa Calm   5.0mph /  8km/h 64% 0.03in /  0.8mm
12:25 41.1 °F /  5.1 °C 29.5 °F /  -1.4 °C 30.46in /  1031.4hPa ENE 2.0mph /  3.2km/h 5.0mph /  8km/h 63% 0.03in /  0.8mm
12:30 41.3 °F /  5.2 °C 29.7 °F /  -1.3 °C 30.46in /  1031.4hPa Calm   5.0mph /  8km/h 63% 0.03in /  0.8mm
12:35 41.4 °F /  5.2 °C 28.6 °F /  -1.9 °C 30.45in /  1031hPa WNW 1.0mph /  1.6km/h 6.0mph /  9.7km/h 60% 0.03in /  0.8mm
12:40 41.6 °F /  5.3 °C 29.2 °F /  -1.6 °C 30.45in /  1031hPa Calm   6.0mph /  9.7km/h 61% 0.03in /  0.8mm
12:45 41.9 °F /  5.5 °C 28.6 °F /  -1.9 °C 30.45in /  1031hPa NNW 1.0mph /  1.6km/h 4.0mph /  6.4km/h 59% 0.04in /  1mm
12:50 42.1 °F /  5.6 °C 28.8 °F /  -1.8 °C 30.45in /  1031hPa Calm   4.0mph /  6.4km/h 59% 0.04in /  1mm
12:55 42.2 °F /  5.7 °C 28.1 °F /  -2.2 °C 30.45in /  1031hPa NNW 2.0mph /  3.2km/h 5.0mph /  8km/h 57% 0.04in /  1mm
13:00 41.9 °F /  5.5 °C 28.2 °F /  -2.1 °C 30.45in /  1031hPa NW 1.0mph /  1.6km/h 5.0mph /  8km/h 58% 0.04in /  1mm
13:05 42.2 °F /  5.7 °C 28.5 °F /  -1.9 °C 30.45in /  1031hPa NNW 4.0mph /  6.4km/h 7.0mph /  11.3km/h 58% 0.04in /  1mm
13:10 42.1 °F /  5.6 °C 28.0 °F /  -2.2 °C 30.45in /  1031hPa NNW 1.0mph /  1.6km/h 7.0mph /  11.3km/h 57% 0.04in /  1mm
13:15 42.2 °F /  5.7 °C 28.1 °F /  -2.2 °C 30.45in /  1031hPa WNW 2.0mph /  3.2km/h 7.0mph /  11.3km/h 57% 0.04in /  1mm
13:20 42.3 °F /  5.7 °C 28.6 °F /  -1.9 °C 30.45in /  1031hPa WNW 1.0mph /  1.6km/h 7.0mph /  11.3km/h 58% 0.04in /  1mm
13:25 42.5 °F /  5.8 °C 28.3 °F /  -2.1 °C 30.45in /  1031hPa WNW 3.0mph /  4.8km/h 6.0mph /  9.7km/h 57% 0.04in /  1mm
13:30 42.4 °F /  5.8 °C 28.2 °F /  -2.1 °C 30.45in /  1031hPa NW 3.0mph /  4.8km/h 8.0mph /  12.9km/h 57% 0.04in /  1mm
13:35 42.3 °F /  5.7 °C 28.2 °F /  -2.1 °C 30.45in /  1031hPa Calm   8.0mph /  12.9km/h 57% 0.04in /  1mm
13:40 42.5 °F /  5.8 °C 28.3 °F /  -2.1 °C 30.45in /  1031hPa NW 4.0mph /  6.4km/h 7.0mph /  11.3km/h 57% 0.04in /  1mm
13:45 43.0 °F /  6.1 °C 29.2 °F /  -1.6 °C 30.44in /  1030.7hPa WNW 3.0mph /  4.8km/h 7.0mph /  11.3km/h 58% 0.04in /  1mm
13:50 43.3 °F /  6.3 °C 29.9 °F /  -1.2 °C 30.44in /  1030.7hPa Calm   6.0mph /  9.7km/h 59% 0.04in /  1mm
13:55 43.5 °F /  6.4 °C 28.8 °F /  -1.8 °C 30.44in /  1030.7hPa Calm   5.0mph /  8km/h 56% 0.04in /  1mm
14:00 43.6 °F /  6.4 °C 28.9 °F /  -1.7 °C 30.44in /  1030.7hPa West 2.0mph /  3.2km/h 5.0mph /  8km/h 56% 0.04in /  1mm
14:05 43.9 °F /  6.6 °C 28.8 °F /  -1.8 °C 30.44in /  1030.7hPa West 3.0mph /  4.8km/h 6.0mph /  9.7km/h 55% 0.04in /  1mm
14:10 43.7 °F /  6.5 °C 27.7 °F /  -2.4 °C 30.44in /  1030.7hPa West 1.0mph /  1.6km/h 7.0mph /  11.3km/h 53% 0.04in /  1mm
14:15 43.6 °F /  6.4 °C 28.1 °F /  -2.2 °C 30.44in /  1030.7hPa West 1.0mph /  1.6km/h 7.0mph /  11.3km/h 54% 0.04in /  1mm
14:20 43.7 °F /  6.5 °C 28.1 °F /  -2.2 °C 30.44in /  1030.7hPa Calm   4.0mph /  6.4km/h 54% 0.04in /  1mm
14:25 44.3 °F /  6.8 °C 28.7 °F /  -1.8 °C 30.44in /  1030.7hPa Calm   3.0mph /  4.8km/h 54% 0.04in /  1mm
14:30 44.1 °F /  6.7 °C 29.0 °F /  -1.7 °C 30.44in /  1030.7hPa Calm   3.0mph /  4.8km/h 55% 0.04in /  1mm
14:35 44.4 °F /  6.9 °C 28.3 °F /  -2.1 °C 30.43in /  1030.4hPa Calm     53% 0.04in /  1mm
14:40 44.7 °F /  7.1 °C 29.5 °F /  -1.4 °C 30.44in /  1030.7hPa Calm   3.0mph /  4.8km/h 55% 0.04in /  1mm
14:45 45.3 °F /  7.4 °C 29.2 °F /  -1.6 °C 30.43in /  1030.4hPa Calm   3.0mph /  4.8km/h 53% 0.04in /  1mm
14:50 45.5 °F /  7.5 °C 29.4 °F /  -1.4 °C 30.43in /  1030.4hPa Calm   3.0mph /  4.8km/h 53% 0.04in /  1mm
14:55 45.3 °F /  7.4 °C 28.2 °F /  -2.1 °C 30.43in /  1030.4hPa Calm   3.0mph /  4.8km/h 51% 0.04in /  1mm
15:00 44.9 °F /  7.2 °C 28.8 °F /  -1.8 °C 30.43in /  1030.4hPa Calm   3.0mph /  4.8km/h 53% 0.04in /  1mm
15:05 44.9 °F /  7.2 °C 27.4 °F /  -2.6 °C 30.43in /  1030.4hPa Calm   3.0mph /  4.8km/h 50% 0.04in /  1mm
15:10 44.9 °F /  7.2 °C 28.3 °F /  -2.1 °C 30.43in /  1030.4hPa Calm   3.0mph /  4.8km/h 52% 0.04in /  1mm
15:15 45.0 °F /  7.2 °C 28.4 °F /  -2 °C 30.43in /  1030.4hPa Calm   3.0mph /  4.8km/h 52% 0.04in /  1mm
15:20 45.5 °F /  7.5 °C 28.4 °F /  -2 °C 30.43in /  1030.4hPa Calm   1.0mph /  1.6km/h 51% 0.04in /  1mm
15:25 45.7 °F /  7.6 °C 27.6 °F /  -2.4 °C 30.43in /  1030.4hPa West 1.0mph /  1.6km/h 3.0mph /  4.8km/h 49% 0.04in /  1mm
15:30 45.9 °F /  7.7 °C 29.3 °F /  -1.5 °C 30.43in /  1030.4hPa West 1.0mph /  1.6km/h 4.0mph /  6.4km/h 52% 0.04in /  1mm
15:35 45.7 °F /  7.6 °C 27.6 °F /  -2.4 °C 30.43in /  1030.4hPa West 1.0mph /  1.6km/h 4.0mph /  6.4km/h 49% 0.04in /  1mm
15:40 45.5 °F /  7.5 °C 27.9 °F /  -2.3 °C 30.43in /  1030.4hPa Calm   5.0mph /  8km/h 50% 0.04in /  1mm
15:45 45.4 °F /  7.4 °C 27.8 °F /  -2.3 °C 30.43in /  1030.4hPa Calm   5.0mph /  8km/h 50% 0.04in /  1mm
15:50 45.7 °F /  7.6 °C 27.6 °F /  -2.4 °C 30.43in /  1030.4hPa Calm   3.0mph /  4.8km/h 49% 0.04in /  1mm
15:55 45.7 °F /  7.6 °C 27.6 °F /  -2.4 °C 30.43in /  1030.4hPa West 2.0mph /  3.2km/h 4.0mph /  6.4km/h 49% 0.05in /  1.3mm
16:00 45.7 °F /  7.6 °C 27.6 °F /  -2.4 °C 30.43in /  1030.4hPa Calm   4.0mph /  6.4km/h 49% 0.05in /  1.3mm
16:05 46.0 °F /  7.8 °C 27.9 °F /  -2.3 °C 30.43in /  1030.4hPa Calm   2.0mph /  3.2km/h 49% 0.05in /  1.3mm
16:10 45.9 °F /  7.7 °C 27.3 °F /  -2.6 °C 30.43in /  1030.4hPa Calm   1.0mph /  1.6km/h 48% 0.05in /  1.3mm
16:15 45.9 °F /  7.7 °C 27.8 °F /  -2.3 °C 30.43in /  1030.4hPa Calm   1.0mph /  1.6km/h 49% 0.05in /  1.3mm
16:20 45.5 °F /  7.5 °C 26.4 °F /  -3.1 °C 30.43in /  1030.4hPa Calm   3.0mph /  4.8km/h 47% 0.05in /  1.3mm
16:25 45.0 °F /  7.2 °C 26.5 °F /  -3.1 °C 30.43in /  1030.4hPa Calm   3.0mph /  4.8km/h 48% 0.05in /  1.3mm
16:30 44.1 °F /  6.7 °C 27.1 °F /  -2.7 °C 30.43in /  1030.4hPa ESE 3.0mph /  4.8km/h 5.0mph /  8km/h 51% 0.05in /  1.3mm
16:35 43.3 °F /  6.3 °C 27.8 °F /  -2.3 °C 30.43in /  1030.4hPa ESE 1.0mph /  1.6km/h 5.0mph /  8km/h 54% 0.05in /  1.3mm
16:40 42.8 °F /  6 °C 26.4 °F /  -3.1 °C 30.43in /  1030.4hPa Calm   3.0mph /  4.8km/h 52% 0.05in /  1.3mm
16:45 42.5 °F /  5.8 °C 25.6 °F /  -3.6 °C 30.43in /  1030.4hPa Calm   1.0mph /  1.6km/h 51% 0.05in /  1.3mm
16:50 42.4 °F /  5.8 °C 26.0 °F /  -3.3 °C 30.43in /  1030.4hPa Calm     52% 0.05in /  1.3mm
16:55 42.1 °F /  5.6 °C 26.2 °F /  -3.2 °C 30.43in /  1030.4hPa Calm   1.0mph /  1.6km/h 53% 0.05in /  1.3mm
17:00 41.7 °F /  5.4 °C 26.7 °F /  -2.9 °C 30.43in /  1030.4hPa Calm   1.0mph /  1.6km/h 55% 0.05in /  1.3mm
17:05 41.2 °F /  5.1 °C 27.1 °F /  -2.7 °C 30.43in /  1030.4hPa Calm     57% 0.05in /  1.3mm
17:10 40.5 °F /  4.7 °C 26.9 °F /  -2.8 °C 30.42in /  1030hPa Calm     58% 0.05in /  1.3mm
17:15 39.7 °F /  4.3 °C 27.4 °F /  -2.6 °C 30.43in /  1030.4hPa Calm     61% 0.05in /  1.3mm
17:20 38.7 °F /  3.7 °C 26.4 °F /  -3.1 °C 30.42in /  1030hPa Calm     61% 0.05in /  1.3mm
17:25 37.8 °F /  3.2 °C 26.0 °F /  -3.3 °C 30.42in /  1030hPa Calm     62% 0.05in /  1.3mm
17:30 36.9 °F /  2.7 °C 25.9 °F /  -3.4 °C 30.42in /  1030hPa Calm     64% 0.05in /  1.3mm
17:35 36.1 °F /  2.3 °C 25.5 °F /  -3.6 °C 30.42in /  1030hPa Calm     65% 0.05in /  1.3mm
17:40 35.6 °F /  2 °C 25.7 °F /  -3.5 °C 30.42in /  1030hPa Calm     67% 0.05in /  1.3mm
17:50 35.0 °F /  1.7 °C 25.9 °F /  -3.4 °C 30.41in /  1029.7hPa Calm     69% 0.05in /  1.3mm
17:55 34.7 °F /  1.5 °C 25.6 °F /  -3.6 °C 30.41in /  1029.7hPa Calm     69% 0.05in /  1.3mm
18:00 34.4 °F /  1.3 °C 25.6 °F /  -3.6 °C 30.41in /  1029.7hPa Calm     70% 0.05in /  1.3mm
18:05 33.8 °F /  1 °C 25.4 °F /  -3.7 °C 30.41in /  1029.7hPa Calm   1.0mph /  1.6km/h 71% 0.05in /  1.3mm
18:10 32.9 °F /  0.5 °C 24.9 °F /  -3.9 °C 30.41in /  1029.7hPa Calm   1.0mph /  1.6km/h 72% 0.05in /  1.3mm
18:15 32.2 °F /  0.1 °C 24.5 °F /  -4.2 °C 30.41in /  1029.7hPa Calm     73% 0.05in /  1.3mm
18:20 31.6 °F /  -0.2 °C 24.3 °F /  -4.3 °C 30.42in /  1030hPa Calm     74% 0.05in /  1.3mm
18:25 31.1 °F /  -0.5 °C 24.1 °F /  -4.4 °C 30.42in /  1030hPa Calm     75% 0.05in /  1.3mm
18:30 31.3 °F /  -0.4 °C 24.6 °F /  -4.1 °C 30.42in /  1030hPa Calm     76% 0.05in /  1.3mm
18:35 31.2 °F /  -0.4 °C 24.5 °F /  -4.2 °C 30.41in /  1029.7hPa Calm     76% 0.05in /  1.3mm
18:40 31.0 °F /  -0.6 °C 24.3 °F /  -4.3 °C 30.42in /  1030hPa Calm     76% 0.05in /  1.3mm
18:45 30.6 °F /  -0.8 °C 23.9 °F /  -4.5 °C 30.42in /  1030hPa Calm     76% 0.05in /  1.3mm
18:50 30.1 °F /  -1.1 °C 24.1 °F /  -4.4 °C 30.41in /  1029.7hPa Calm     78% 0.05in /  1.3mm
18:55 30.3 °F /  -0.9 °C 24.3 °F /  -4.3 °C 30.42in /  1030hPa Calm     78% 0.05in /  1.3mm
19:00 30.2 °F /  -1 °C 24.2 °F /  -4.3 °C 30.42in /  1030hPa Calm     78% 0.05in /  1.3mm
19:05 30.1 °F /  -1.1 °C 24.4 °F /  -4.2 °C 30.42in /  1030hPa Calm     79% 0.05in /  1.3mm
19:10 30.3 °F /  -0.9 °C 24.6 °F /  -4.1 °C 30.42in /  1030hPa Calm     79% 0.05in /  1.3mm
19:15 30.1 °F /  -1.1 °C 24.4 °F /  -4.2 °C 30.41in /  1029.7hPa Calm     79% 0.05in /  1.3mm
19:20 30.1 °F /  -1.1 °C 24.4 °F /  -4.2 °C 30.41in /  1029.7hPa Calm     79% 0.05in /  1.3mm
19:25 30.1 °F /  -1.1 °C 24.7 °F /  -4.1 °C 30.41in /  1029.7hPa Calm     80% 0.05in /  1.3mm
19:30 30.2 °F /  -1 °C 25.1 °F /  -3.8 °C 30.41in /  1029.7hPa Calm     81% 0.05in /  1.3mm
19:40 30.1 °F /  -1.1 °C 25.0 °F /  -3.9 °C 30.41in /  1029.7hPa Calm     81% 0.05in /  1.3mm
19:45 29.9 °F /  -1.2 °C 24.8 °F /  -4 °C 30.41in /  1029.7hPa Calm     81% 0.05in /  1.3mm
19:50 29.6 °F /  -1.3 °C 24.2 °F /  -4.3 °C 30.41in /  1029.7hPa Calm     80% 0.05in /  1.3mm
19:55 29.3 °F /  -1.5 °C 24.2 °F /  -4.3 °C 30.41in /  1029.7hPa Calm     81% 0.05in /  1.3mm
20:00 29.2 °F /  -1.6 °C 24.1 °F /  -4.4 °C 30.41in /  1029.7hPa Calm     81% 0.05in /  1.3mm
20:05 29.0 °F /  -1.7 °C 23.9 °F /  -4.5 °C 30.41in /  1029.7hPa Calm     81% 0.05in /  1.3mm
20:10 29.0 °F /  -1.7 °C 24.2 °F /  -4.3 °C 30.41in /  1029.7hPa Calm     82% 0.05in /  1.3mm
20:15 28.9 °F /  -1.7 °C 23.8 °F /  -4.6 °C 30.41in /  1029.7hPa Calm     81% 0.05in /  1.3mm
20:20 28.8 °F /  -1.8 °C 23.7 °F /  -4.6 °C 30.41in /  1029.7hPa Calm     81% 0.05in /  1.3mm
20:25 28.7 °F /  -1.8 °C 23.6 °F /  -4.7 °C 30.41in /  1029.7hPa Calm     81% 0.05in /  1.3mm
20:30 28.5 °F /  -1.9 °C 23.4 °F /  -4.8 °C 30.41in /  1029.7hPa Calm     81% 0.05in /  1.3mm
20:35 28.3 °F /  -2.1 °C 23.5 °F /  -4.7 °C 30.41in /  1029.7hPa Calm     82% 0.05in /  1.3mm
20:40 28.2 °F /  -2.1 °C 23.4 °F /  -4.8 °C 30.41in /  1029.7hPa Calm     82% 0.05in /  1.3mm
20:45 28.1 °F /  -2.2 °C 23.3 °F /  -4.8 °C 30.41in /  1029.7hPa Calm     82% 0.05in /  1.3mm
20:50 28.1 °F /  -2.2 °C 23.6 °F /  -4.7 °C 30.41in /  1029.7hPa Calm     83% 0.05in /  1.3mm
20:55 28.2 °F /  -2.1 °C 23.4 °F /  -4.8 °C 30.41in /  1029.7hPa Calm     82% 0.05in /  1.3mm
21:00 28.3 °F /  -2.1 °C 23.5 °F /  -4.7 °C 30.41in /  1029.7hPa Calm   3.0mph /  4.8km/h 82% 0.05in /  1.3mm
21:05 28.4 °F /  -2 °C 23.6 °F /  -4.7 °C 30.42in /  1030hPa Calm   3.0mph /  4.8km/h 82% 0.05in /  1.3mm
21:10 28.4 °F /  -2 °C 23.6 °F /  -4.7 °C 30.42in /  1030hPa Calm   1.0mph /  1.6km/h 82% 0.05in /  1.3mm
21:15 28.4 °F /  -2 °C 23.6 °F /  -4.7 °C 30.42in /  1030hPa Calm   1.0mph /  1.6km/h 82% 0.05in /  1.3mm
21:20 28.5 °F /  -1.9 °C 23.7 °F /  -4.6 °C 30.42in /  1030hPa Calm   2.0mph /  3.2km/h 82% 0.05in /  1.3mm
21:25 28.6 °F /  -1.9 °C 23.8 °F /  -4.6 °C 30.42in /  1030hPa ESE 1.0mph /  1.6km/h 3.0mph /  4.8km/h 82% 0.05in /  1.3mm
21:30 28.9 °F /  -1.7 °C 23.8 °F /  -4.6 °C 30.42in /  1030hPa Calm   5.0mph /  8km/h 81% 0.05in /  1.3mm
21:35 29.2 °F /  -1.6 °C 24.1 °F /  -4.4 °C 30.42in /  1030hPa SSE 1.0mph /  1.6km/h 5.0mph /  8km/h 81% 0.05in /  1.3mm
21:40 29.5 °F /  -1.4 °C 24.1 °F /  -4.4 °C 30.41in /  1029.7hPa Calm   4.0mph /  6.4km/h 80% 0.05in /  1.3mm
21:45 29.5 °F /  -1.4 °C 23.8 °F /  -4.6 °C 30.42in /  1030hPa Calm   3.0mph /  4.8km/h 79% 0.05in /  1.3mm
21:50 29.4 °F /  -1.4 °C 23.7 °F /  -4.6 °C 30.42in /  1030hPa Calm   3.0mph /  4.8km/h 79% 0.05in /  1.3mm
21:55 29.5 °F /  -1.4 °C 23.8 °F /  -4.6 °C 30.41in /  1029.7hPa SSE 1.0mph /  1.6km/h 4.0mph /  6.4km/h 79% 0.05in /  1.3mm
22:00 29.8 °F /  -1.2 °C 24.1 °F /  -4.4 °C 30.42in /  1030hPa Calm   5.0mph /  8km/h 79% 0.05in /  1.3mm
22:05 30.1 °F /  -1.1 °C 24.1 °F /  -4.4 °C 30.42in /  1030hPa SSE 1.0mph /  1.6km/h 5.0mph /  8km/h 78% 0.05in /  1.3mm
22:10 30.5 °F /  -0.8 °C 24.5 °F /  -4.2 °C 30.41in /  1029.7hPa SSE 1.0mph /  1.6km/h 4.0mph /  6.4km/h 78% 0.05in /  1.3mm
22:15 30.7 °F /  -0.7 °C 24.3 °F /  -4.3 °C 30.41in /  1029.7hPa Calm   4.0mph /  6.4km/h 77% 0.05in /  1.3mm
22:20 30.8 °F /  -0.7 °C 24.1 °F /  -4.4 °C 30.41in /  1029.7hPa Calm   4.0mph /  6.4km/h 76% 0.05in /  1.3mm
22:25 30.7 °F /  -0.7 °C 23.7 °F /  -4.6 °C 30.41in /  1029.7hPa Calm   4.0mph /  6.4km/h 75% 0.05in /  1.3mm
22:30 30.5 °F /  -0.8 °C 23.5 °F /  -4.7 °C 30.41in /  1029.7hPa Calm   4.0mph /  6.4km/h 75% 0.05in /  1.3mm
22:35 30.4 °F /  -0.9 °C 23.4 °F /  -4.8 °C 30.41in /  1029.7hPa Calm   4.0mph /  6.4km/h 75% 0.05in /  1.3mm
22:40 30.6 °F /  -0.8 °C 23.6 °F /  -4.7 °C 30.41in /  1029.7hPa Calm   4.0mph /  6.4km/h 75% 0.05in /  1.3mm
22:45 31.0 °F /  -0.6 °C 23.7 °F /  -4.6 °C 30.41in /  1029.7hPa Calm   5.0mph /  8km/h 74% 0.05in /  1.3mm
22:50 31.2 °F /  -0.4 °C 23.6 °F /  -4.7 °C 30.41in /  1029.7hPa Calm   5.0mph /  8km/h 73% 0.05in /  1.3mm
22:55 31.4 °F /  -0.3 °C 23.8 °F /  -4.6 °C 30.41in /  1029.7hPa South 1.0mph /  1.6km/h 5.0mph /  8km/h 73% 0.05in /  1.3mm
23:00 31.7 °F /  -0.2 °C 23.7 °F /  -4.6 °C 30.41in /  1029.7hPa Calm   5.0mph /  8km/h 72% 0.05in /  1.3mm
23:05 31.7 °F /  -0.2 °C 23.4 °F /  -4.8 °C 30.41in /  1029.7hPa Calm   5.0mph /  8km/h 71% 0.05in /  1.3mm
23:10 31.6 °F /  -0.2 °C 23.3 °F /  -4.8 °C 30.41in /  1029.7hPa Calm   5.0mph /  8km/h 71% 0.05in /  1.3mm
23:15 31.4 °F /  -0.3 °C 23.1 °F /  -4.9 °C 30.40in /  1029.3hPa SSW 1.0mph /  1.6km/h 5.0mph /  8km/h 71% 0.05in /  1.3mm
23:20 31.5 °F /  -0.3 °C 22.8 °F /  -5.1 °C 30.40in /  1029.3hPa SSW 4.0mph /  6.4km/h 7.0mph /  11.3km/h 70% 0.05in /  1.3mm
23:25 31.9 °F /  -0.1 °C 22.9 °F /  -5.1 °C 30.40in /  1029.3hPa SSW 3.0mph /  4.8km/h 7.0mph /  11.3km/h 69% 0.05in /  1.3mm
23:30 32.3 °F /  0.2 °C 22.9 °F /  -5.1 °C 30.40in /  1029.3hPa SSW 1.0mph /  1.6km/h 6.0mph /  9.7km/h 68% 0.05in /  1.3mm
23:35 32.3 °F /  0.2 °C 22.9 °F /  -5.1 °C 30.40in /  1029.3hPa SSW 2.0mph /  3.2km/h 6.0mph /  9.7km/h 68% 0.05in /  1.3mm
23:40 32.1 °F /  0.1 °C 22.7 °F /  -5.2 °C 30.40in /  1029.3hPa SSW 1.0mph /  1.6km/h 6.0mph /  9.7km/h 68% 0.05in /  1.3mm
23:45 31.9 °F /  -0.1 °C 22.2 °F /  -5.4 °C 30.40in /  1029.3hPa SSW 1.0mph /  1.6km/h 6.0mph /  9.7km/h 67% 0.05in /  1.3mm
23:50 31.7 °F /  -0.2 °C 22.0 °F /  -5.6 °C 30.40in /  1029.3hPa Calm   6.0mph /  9.7km/h 67% 0.05in /  1.3mm
23:55 32.1 °F /  0.1 °C 22.4 °F /  -5.3 °C 30.40in /  1029.3hPa SSW 2.0mph /  3.2km/h 6.0mph /  9.7km/h 67% 0.05in /  1.3mm
Westford Weather
Compliments of Weather Underground

 
 
Current Radar Loop:

Copyright © WestfordWeather.net 2007-2014. All rights reserved.